Main page
METAR-TAF:

METAR-TAF

Airports :

Oil platform

Goeree Le, Netherlands

latitude: 51-55-33N, longitude: 3-40-12E, elevation: 19 m

Current weather observation

The report was made 16 minutes ago, at 00:55 UTC
Wind 29 kt from the West
Temperature 8°C
Humidity 76%
Pressure 1016 hPa
Visibility 10 km or more

METAR: EHSC 180055Z AUTO 26029KT 9999 ///////// 08/04 Q1016 W08/H20

Time: 02:11 (01:11 UTC)


TAF: missing

Weather observations and forecasts of more than 4000 airports (METAR and TAF reports).

The available stations are represented by yellow and red dots on the map.

Hover mouse over dot to see the name of the station.

Then click to see weather observations and forecasts.

To change the map : click on the green buttons with a black cross to zoom in, on the green button with a dash to zoom out, or on the green arrows for adjacent maps.


METAR-TAF: